Orchard, CO (80649)

10:59 PM MDT on August 19, 2014 (GMT -0600)
Fort Morgan | Change Station
CLOSE
Current Station
Airport
Location: Fort Morgan,
Elevation: 4570 ft
Nearby Weather Stations

Elev 4570 ft 40.33 °N, 103.80 °W | Updated 4 minutes ago

Clear
Clear
63 °F
Feels Like 63 °F
N
7
Wind Variable Wind from NNE

Today
High -- | Low -- °F
--% Chance of Precip.
Yesterday
High -- | Low -- °F
Precip. -- in
6:11 AM 7:47 PM
Waning Crescent, 24% visible
Pressure 29.90 in
Visibility 10.0 miles
Clouds Clear
Dew Point 54 °F
Humidity 73%
Rainfall 0.00 in
Snow Depth Not available.
UV 0 out of 12
Pollen 9.60 out of 12
Air Quality Not available.
Flu Activity Not available.
METAR KFMM 200455Z AUTO 03006KT 10SM CLR 17/13 A2990 RMK AO2 T01740125 PWINO

More Conditions Fewer Conditions

Pressure 29.90 in
Visibility 10.0 miles
Clouds Clear
Dew Point 54 °F
Humidity 73%
Rainfall 0.00 in
Snow Depth Not available.
UV 0 out of 12
Pollen 9.60 out of 12
Air Quality Not available.
Flu Activity Not available.
METAR KFMM 200455Z AUTO 03006KT 10SM CLR 17/13 A2990 RMK AO2 T01740125 PWINO

More Conditions Fewer Conditions

10-Day Weather Forecast

Almanac

Astronomy

Aug. 19, 2014 Rise Set
Actual Time 6:11 AM MDT 7:47 PM MDT
Civil Twilight 5:42 AM MDT 8:16 PM MDT
Nautical Twilight 5:07 AM MDT 8:51 PM MDT
Astronomical Twilight 4:30 AM MDT 9:28 PM MDT
Moon 1:04 AM MDT (8/19) 3:46 PM MDT (8/19)
Length of Visible Light 14h 34m
Length of Day
13h 36m
Tomorrow will be 2m 25s shorter.
Waning Crescent, 24% of the Moon is Illuminated
Aug 20
Waning Crescent
Aug 25
New
Sep 2
First Quarter
Sep 8
Full
Sep 15
Last Quarter

Yesterday's Extremes

State Highs State Lows

Community

WunderPhotos

Upload Photos

1,745,585 photos uploaded!

Nearby

Snow Depth

Station Depth Elevation
Copeland Lake 0 in 8600 ft
Wild Basin 0 in 9560 ft
University Camp 0 in 10300 ft
Bear Lake 0 in 9500 ft
Willow Park 0 in 10700 ft

Earthquake Activity

City Distance Mag. Time & Date
No recent earthquake activity has been reported nearby.
Minimum magnitude displayed is 2.5.

Coastal Water Temperatures

Place Temperature
No Stations Reporting

Nearby Weather Stations